sensor_id;sensor_type;location;lat;lon;timestamp;pressure;altitude;pressure_sealevel;temperature;humidity
17254;BME280;32542;52.832;13.816;2023-04-21T00:03:00;102023.78;;;21.75;47.32
17254;BME280;32542;52.832;13.816;2023-04-21T00:06:04;102018.44;;;21.75;47.37
17254;BME280;32542;52.832;13.816;2023-04-21T00:09:09;102014.84;;;21.76;47.23
17254;BME280;32542;52.832;13.816;2023-04-21T00:12:12;102018.25;;;21.81;47.28
17254;BME280;32542;52.832;13.816;2023-04-21T00:15:15;102017.34;;;21.81;47.11
17254;BME280;32542;52.832;13.816;2023-04-21T00:18:18;102014.69;;;21.81;47.23
17254;BME280;32542;52.832;13.816;2023-04-21T00:21:21;102017.34;;;21.81;47.14
17254;BME280;32542;52.832;13.816;2023-04-21T00:24:25;102009.41;;;21.79;47.19
17254;BME280;32542;52.832;13.816;2023-04-21T00:27:28;102010.28;;;21.80;47.19
17254;BME280;32542;52.832;13.816;2023-04-21T00:30:31;102002.25;;;21.81;47.10
17254;BME280;32542;52.832;13.816;2023-04-21T00:33:34;101995.25;;;21.77;47.18
17254;BME280;32542;52.832;13.816;2023-04-21T00:36:37;101999.72;;;21.76;47.42
17254;BME280;32542;52.832;13.816;2023-04-21T00:39:41;101994.53;;;21.72;47.45
17254;BME280;32542;52.832;13.816;2023-04-21T00:42:47;101996.22;;;21.74;47.40
17254;BME280;32542;52.832;13.816;2023-04-21T00:45:50;101995.41;;;21.72;47.40
17254;BME280;32542;52.832;13.816;2023-04-21T00:48:52;101999.84;;;21.73;47.35
17254;BME280;32542;52.832;13.816;2023-04-21T00:51:55;102001.50;;;21.76;47.22
17254;BME280;32542;52.832;13.816;2023-04-21T00:55:03;101996.16;;;21.76;47.29
17254;BME280;32542;52.832;13.816;2023-04-21T00:58:06;101993.50;;;21.76;47.26
17254;BME280;32542;52.832;13.816;2023-04-21T01:01:09;101998.91;;;21.74;47.33
17254;BME280;32542;52.832;13.816;2023-04-21T01:04:13;101997.09;;;21.75;47.23
17254;BME280;32542;52.832;13.816;2023-04-21T01:07:15;101999.78;;;21.75;47.26
17254;BME280;32542;52.832;13.816;2023-04-21T01:10:20;101995.31;;;21.75;47.26
17254;BME280;32542;52.832;13.816;2023-04-21T01:13:23;102006.88;;;21.74;47.27
17254;BME280;32542;52.832;13.816;2023-04-21T01:16:26;101997.31;;;21.69;47.50
17254;BME280;32542;52.832;13.816;2023-04-21T01:19:31;102000.88;;;21.68;47.45
17254;BME280;32542;52.832;13.816;2023-04-21T01:22:38;101996.50;;;21.65;47.56
17254;BME280;32542;52.832;13.816;2023-04-21T01:25:42;101995.53;;;21.68;47.43
17254;BME280;32542;52.832;13.816;2023-04-21T01:28:45;101996.34;;;21.71;47.41
17254;BME280;32542;52.832;13.816;2023-04-21T01:31:49;101994.66;;;21.69;47.42
17254;BME280;32542;52.832;13.816;2023-04-21T01:34:52;101990.22;;;21.68;47.46
17254;BME280;32542;52.832;13.816;2023-04-21T01:37:57;101990.22;;;21.68;47.40
17254;BME280;32542;52.832;13.816;2023-04-21T01:41:00;101985.75;;;21.68;47.45
17254;BME280;32542;52.832;13.816;2023-04-21T01:44:03;101990.13;;;21.71;47.43
17254;BME280;32542;52.832;13.816;2023-04-21T01:47:07;101980.44;;;21.68;47.38
17254;BME280;32542;52.832;13.816;2023-04-21T01:50:10;101988.50;;;21.67;47.52
17254;BME280;32542;52.832;13.816;2023-04-21T01:53:17;101986.72;;;21.66;47.53
17254;BME280;32542;52.832;13.816;2023-04-21T01:56:20;101985.97;;;21.62;47.56
17254;BME280;32542;52.832;13.816;2023-04-21T01:59:23;101986.84;;;21.63;47.59
17254;BME280;32542;52.832;13.816;2023-04-21T02:02:26;101978.06;;;21.59;47.65
17254;BME280;32542;52.832;13.816;2023-04-21T02:05:29;101980.69;;;21.61;47.54
17254;BME280;32542;52.832;13.816;2023-04-21T02:08:33;101983.25;;;21.64;47.58
17254;BME280;32542;52.832;13.816;2023-04-21T02:11:36;101988.50;;;21.65;47.65
17254;BME280;32542;52.832;13.816;2023-04-21T02:14:39;101985.00;;;21.65;47.44
17254;BME280;32542;52.832;13.816;2023-04-21T02:17:42;101973.47;;;21.64;47.58
17254;BME280;32542;52.832;13.816;2023-04-21T02:20:45;101979.66;;;21.65;47.41
17254;BME280;32542;52.832;13.816;2023-04-21T02:23:50;101976.06;;;21.66;47.46
17254;BME280;32542;52.832;13.816;2023-04-21T02:26:53;101974.34;;;21.65;47.48
17254;BME280;32542;52.832;13.816;2023-04-21T02:29:58;101978.78;;;21.64;47.45
17254;BME280;32542;52.832;13.816;2023-04-21T02:33:01;101972.69;;;21.61;47.59
17254;BME280;32542;52.832;13.816;2023-04-21T02:36:04;101972.69;;;21.61;47.69
17254;BME280;32542;52.832;13.816;2023-04-21T02:39:09;101976.25;;;21.60;47.62
17254;BME280;32542;52.832;13.816;2023-04-21T02:42:12;101975.38;;;21.61;47.62
17254;BME280;32542;52.832;13.816;2023-04-21T02:45:15;101981.59;;;21.60;47.54
17254;BME280;32542;52.832;13.816;2023-04-21T02:48:18;101978.88;;;21.61;47.52
17254;BME280;32542;52.832;13.816;2023-04-21T02:51:25;101974.41;;;21.62;47.63
17254;BME280;32542;52.832;13.816;2023-04-21T02:54:29;101975.31;;;21.62;47.52
17254;BME280;32542;52.832;13.816;2023-04-21T02:57:32;101982.38;;;21.63;47.58
17254;BME280;32542;52.832;13.816;2023-04-21T03:00:35;101982.34;;;21.65;47.54
17254;BME280;32542;52.832;13.816;2023-04-21T03:03:38;101975.25;;;21.64;47.52
17254;BME280;32542;52.832;13.816;2023-04-21T03:06:41;101976.06;;;21.66;47.47
17254;BME280;32542;52.832;13.816;2023-04-21T03:09:47;101976.94;;;21.66;47.40
17254;BME280;32542;52.832;13.816;2023-04-21T03:12:50;101974.22;;;21.68;47.39
17254;BME280;32542;52.832;13.816;2023-04-21T03:15:54;101971.50;;;21.69;47.42
17254;BME280;32542;52.832;13.816;2023-04-21T03:18:57;101969.72;;;21.70;47.39
17254;BME280;32542;52.832;13.816;2023-04-21T03:22:01;101970.53;;;21.72;47.31
17254;BME280;32542;52.832;13.816;2023-04-21T03:25:06;101970.53;;;21.72;47.33
17254;BME280;32542;52.832;13.816;2023-04-21T03:28:09;101972.34;;;21.71;47.32
17254;BME280;32542;52.832;13.816;2023-04-21T03:31:12;101974.97;;;21.73;47.28
17254;BME280;32542;52.832;13.816;2023-04-21T03:34:15;101976.75;;;21.72;47.29
17254;BME280;32542;52.832;13.816;2023-04-21T03:37:18;101972.28;;;21.73;47.34
17254;BME280;32542;52.832;13.816;2023-04-21T03:40:24;101972.28;;;21.73;47.25
17254;BME280;32542;52.832;13.816;2023-04-21T03:43:27;101972.28;;;21.73;47.21
17254;BME280;32542;52.832;13.816;2023-04-21T03:46:29;101973.16;;;21.73;47.29
17254;BME280;32542;52.832;13.816;2023-04-21T03:49:33;101968.75;;;21.72;47.26
17254;BME280;32542;52.832;13.816;2023-04-21T03:52:36;101969.63;;;21.73;47.26
17254;BME280;32542;52.832;13.816;2023-04-21T03:55:41;101969.63;;;21.73;47.35
17254;BME280;32542;52.832;13.816;2023-04-21T03:58:43;101966.03;;;21.74;47.30
17254;BME280;32542;52.832;13.816;2023-04-21T04:01:46;101971.34;;;21.74;47.24
17254;BME280;32542;52.832;13.816;2023-04-21T04:04:49;101968.69;;;21.74;47.23
17254;BME280;32542;52.832;13.816;2023-04-21T04:07:52;101978.44;;;21.75;47.21
17254;BME280;32542;52.832;13.816;2023-04-21T04:10:57;101972.22;;;21.74;47.27
17254;BME280;32542;52.832;13.816;2023-04-21T04:14:00;101976.69;;;21.74;47.21
17254;BME280;32542;52.832;13.816;2023-04-21T04:17:02;101982.00;;;21.74;47.29
17254;BME280;32542;52.832;13.816;2023-04-21T04:20:06;101974.97;;;21.73;47.25
17254;BME280;32542;52.832;13.816;2023-04-21T04:23:09;101972.28;;;21.73;47.28
17254;BME280;32542;52.832;13.816;2023-04-21T04:26:14;101982.06;;;21.72;47.25
17254;BME280;32542;52.832;13.816;2023-04-21T04:29:17;101982.06;;;21.72;47.30
17254;BME280;32542;52.832;13.816;2023-04-21T04:32:20;101981.19;;;21.72;47.28
17254;BME280;32542;52.832;13.816;2023-04-21T04:35:23;101974.97;;;21.73;47.31
17254;BME280;32542;52.832;13.816;2023-04-21T04:38:26;101975.00;;;21.71;47.26
17254;BME280;32542;52.832;13.816;2023-04-21T04:41:32;101979.47;;;21.71;47.40
17254;BME280;32542;52.832;13.816;2023-04-21T04:44:36;101975.00;;;21.71;47.29
17254;BME280;32542;52.832;13.816;2023-04-21T04:47:42;101982.13;;;21.71;47.33
17254;BME280;32542;52.832;13.816;2023-04-21T04:50:46;101984.81;;;21.71;47.26
17254;BME280;32542;52.832;13.816;2023-04-21T04:53:49;101984.81;;;21.71;47.22
17254;BME280;32542;52.832;13.816;2023-04-21T04:56:53;101981.25;;;21.70;47.32
17254;BME280;32542;52.832;13.816;2023-04-21T04:59:57;101984.81;;;21.71;47.32
17254;BME280;32542;52.832;13.816;2023-04-21T05:03:00;101988.34;;;21.71;47.35
17254;BME280;32542;52.832;13.816;2023-04-21T05:06:03;101993.69;;;21.71;47.27
17254;BME280;32542;52.832;13.816;2023-04-21T05:09:07;102000.78;;;21.71;47.33
17254;BME280;32542;52.832;13.816;2023-04-21T05:12:12;101985.69;;;21.70;47.34
17254;BME280;32542;52.832;13.816;2023-04-21T05:15:16;101991.91;;;21.70;47.36
17254;BME280;32542;52.832;13.816;2023-04-21T05:18:19;101990.13;;;21.71;47.22
17254;BME280;32542;52.832;13.816;2023-04-21T05:21:23;101991.00;;;21.71;47.30
17254;BME280;32542;52.832;13.816;2023-04-21T05:24:28;101991.00;;;21.71;47.36
17254;BME280;32542;52.832;13.816;2023-04-21T05:27:32;101991.00;;;21.71;47.28
17254;BME280;32542;52.832;13.816;2023-04-21T05:30:35;101990.13;;;21.71;47.34
17254;BME280;32542;52.832;13.816;2023-04-21T05:33:38;101992.81;;;21.71;47.32
17254;BME280;32542;52.832;13.816;2023-04-21T05:36:41;101985.69;;;21.70;47.34
17254;BME280;32542;52.832;13.816;2023-04-21T05:39:45;101998.16;;;21.69;47.36
17254;BME280;32542;52.832;13.816;2023-04-21T05:42:49;101999.03;;;21.70;47.30
17254;BME280;32542;52.832;13.816;2023-04-21T05:45:52;101990.16;;;21.69;47.38
17254;BME280;32542;52.832;13.816;2023-04-21T05:48:55;101993.72;;;21.70;47.36
17254;BME280;32542;52.832;13.816;2023-04-21T05:51:58;101986.59;;;21.70;47.43
17254;BME280;32542;52.832;13.816;2023-04-21T05:55:01;101990.13;;;21.71;47.47
17254;BME280;32542;52.832;13.816;2023-04-21T05:58:05;101986.53;;;21.72;47.35
17254;BME280;32542;52.832;13.816;2023-04-21T06:01:08;101983.84;;;21.73;47.36
17254;BME280;32542;52.832;13.816;2023-04-21T06:04:11;101984.69;;;21.74;47.32
17254;BME280;32542;52.832;13.816;2023-04-21T06:07:14;101983.84;;;21.73;47.46
17254;BME280;32542;52.832;13.816;2023-04-21T06:10:19;101986.44;;;21.75;47.58
17254;BME280;32542;52.832;13.816;2023-04-21T06:13:23;101983.72;;;21.76;47.57
17254;BME280;32542;52.832;13.816;2023-04-21T06:16:28;101982.84;;;21.76;47.71
17254;BME280;32542;52.832;13.816;2023-04-21T06:19:36;101979.25;;;21.77;47.77
17254;BME280;32542;52.832;13.816;2023-04-21T06:22:41;101978.31;;;21.78;47.86
17254;BME280;32542;52.832;13.816;2023-04-21T06:25:44;101975.66;;;21.78;47.79
17254;BME280;32542;52.832;13.816;2023-04-21T06:28:48;101972.97;;;21.80;47.71
17254;BME280;32542;52.832;13.816;2023-04-21T06:31:51;101975.63;;;21.80;47.94
17254;BME280;32542;52.832;13.816;2023-04-21T06:34:54;101983.56;;;21.81;47.87
17254;BME280;32542;52.832;13.816;2023-04-21T06:37:57;101980.88;;;21.83;47.85
17254;BME280;32542;52.832;13.816;2023-04-21T06:41:00;101970.19;;;21.84;47.96
17254;BME280;32542;52.832;13.816;2023-04-21T06:44:06;101971.91;;;21.85;47.82
17254;BME280;32542;52.832;13.816;2023-04-21T06:47:09;101972.78;;;21.86;47.87
17254;BME280;32542;52.832;13.816;2023-04-21T06:50:12;101966.56;;;21.85;47.76
17254;BME280;32542;52.832;13.816;2023-04-21T06:53:15;101963.91;;;21.85;47.89
17254;BME280;32542;52.832;13.816;2023-04-21T06:56:18;101968.34;;;21.86;48.00
17254;BME280;32542;52.832;13.816;2023-04-21T06:59:23;101977.16;;;21.88;48.00
17254;BME280;32542;52.832;13.816;2023-04-21T07:02:26;101959.34;;;21.89;48.06
17254;BME280;32542;52.832;13.816;2023-04-21T07:05:29;101964.66;;;21.89;47.92
17254;BME280;32542;52.832;13.816;2023-04-21T07:08:32;101971.81;;;21.88;47.91
17254;BME280;32542;52.832;13.816;2023-04-21T07:11:35;101970.88;;;21.89;48.16
17254;BME280;32542;52.832;13.816;2023-04-21T07:14:39;101954.84;;;21.91;47.86
17254;BME280;32542;52.832;13.816;2023-04-21T07:17:42;101961.91;;;21.92;48.06
17254;BME280;32542;52.832;13.816;2023-04-21T07:20:45;101966.34;;;21.93;48.12
17254;BME280;32542;52.832;13.816;2023-04-21T07:23:48;101975.19;;;21.93;47.96
17254;BME280;32542;52.832;13.816;2023-04-21T07:26:51;101969.84;;;21.93;47.97
17254;BME280;32542;52.832;13.816;2023-04-21T07:29:55;101962.72;;;21.94;47.95
17254;BME280;32542;52.832;13.816;2023-04-21T07:32:58;101969.00;;;21.93;47.85
17254;BME280;32542;52.832;13.816;2023-04-21T07:36:01;101960.13;;;21.92;47.73
17254;BME280;32542;52.832;13.816;2023-04-21T07:39:04;101969.91;;;21.92;47.52
17254;BME280;32542;52.832;13.816;2023-04-21T07:42:07;101961.16;;;21.88;47.09
17254;BME280;32542;52.832;13.816;2023-04-21T07:45:13;101959.56;;;21.81;45.89
17254;BME280;32542;52.832;13.816;2023-04-21T07:48:15;101954.53;;;21.72;45.19
17254;BME280;32542;52.832;13.816;2023-04-21T07:51:18;101955.69;;;21.65;44.17
17254;BME280;32542;52.832;13.816;2023-04-21T07:54:21;101950.50;;;21.59;43.48
17254;BME280;32542;52.832;13.816;2023-04-21T07:57:24;101947.03;;;21.57;44.00
17254;BME280;32542;52.832;13.816;2023-04-21T08:00:29;101947.16;;;21.54;44.61
17254;BME280;32542;52.832;13.816;2023-04-21T08:03:31;101955.22;;;21.51;42.94
17254;BME280;32542;52.832;13.816;2023-04-21T08:06:35;101948.94;;;21.53;42.44
17254;BME280;32542;52.832;13.816;2023-04-21T08:09:38;101947.00;;;21.58;42.40
17254;BME280;32542;52.832;13.816;2023-04-21T08:12:41;101951.25;;;21.64;42.28
17254;BME280;32542;52.832;13.816;2023-04-21T08:15:45;101942.22;;;21.68;42.31
17254;BME280;32542;52.832;13.816;2023-04-21T08:18:48;101940.38;;;21.70;42.58
17254;BME280;32542;52.832;13.816;2023-04-21T08:21:51;101939.47;;;21.71;42.84
17254;BME280;32542;52.832;13.816;2023-04-21T08:24:54;101934.09;;;21.72;42.95
17254;BME280;32542;52.832;13.816;2023-04-21T08:27:57;101939.34;;;21.74;43.14
17254;BME280;32542;52.832;13.816;2023-04-21T08:31:02;101934.84;;;21.76;43.15
17254;BME280;32542;52.832;13.816;2023-04-21T08:34:05;101931.28;;;21.77;43.40
17254;BME280;32542;52.832;13.816;2023-04-21T08:37:08;101936.59;;;21.77;43.78
17254;BME280;32542;52.832;13.816;2023-04-21T08:40:12;101933.00;;;21.78;44.12
17254;BME280;32542;52.832;13.816;2023-04-21T08:43:14;101929.41;;;21.79;44.00
17254;BME280;32542;52.832;13.816;2023-04-21T08:46:19;101929.41;;;21.79;44.39
17254;BME280;32542;52.832;13.816;2023-04-21T08:49:24;101929.41;;;21.79;44.46
17254;BME280;32542;52.832;13.816;2023-04-21T08:52:31;101925.81;;;21.80;44.60
17254;BME280;32542;52.832;13.816;2023-04-21T08:55:34;101927.56;;;21.81;44.87
17254;BME280;32542;52.832;13.816;2023-04-21T08:58:37;101932.91;;;21.81;44.93
17254;BME280;32542;52.832;13.816;2023-04-21T09:02:06;101925.75;;;21.83;45.08
17254;BME280;32542;52.832;13.816;2023-04-21T09:05:12;101927.53;;;21.83;45.18
17254;BME280;32542;52.832;13.816;2023-04-21T09:08:23;101920.41;;;21.83;45.27
17254;BME280;32542;52.832;13.816;2023-04-21T09:11:31;101925.75;;;21.83;45.36
17254;BME280;32542;52.832;13.816;2023-04-21T09:14:34;101922.19;;;21.84;45.44
17254;BME280;32542;52.832;13.816;2023-04-21T09:17:39;101922.19;;;21.84;45.56
17254;BME280;32542;52.832;13.816;2023-04-21T09:20:43;101918.56;;;21.85;45.58
17254;BME280;32542;52.832;13.816;2023-04-21T09:23:48;101919.47;;;21.86;45.66
17254;BME280;32542;52.832;13.816;2023-04-21T09:26:52;101920.34;;;21.86;45.75
17254;BME280;32542;52.832;13.816;2023-04-21T09:30:01;101912.34;;;21.86;45.84
17254;BME280;32542;52.832;13.816;2023-04-21T09:33:14;101900.72;;;21.87;46.02
17254;BME280;32542;52.832;13.816;2023-04-21T09:36:31;101907.81;;;21.88;46.12
17254;BME280;32542;52.832;13.816;2023-04-21T09:39:34;101901.59;;;21.88;46.16
17254;BME280;32542;52.832;13.816;2023-04-21T09:42:53;101907.81;;;21.88;46.16
17254;BME280;32542;52.832;13.816;2023-04-21T09:45:57;101901.59;;;21.88;46.07
17254;BME280;32542;52.832;13.816;2023-04-21T09:49:03;101903.38;;;21.87;46.09
17254;BME280;32542;52.832;13.816;2023-04-21T09:52:07;101888.34;;;21.86;46.05
17254;BME280;32542;52.832;13.816;2023-04-21T09:55:22;101885.66;;;21.86;45.99
17254;BME280;32542;52.832;13.816;2023-04-21T09:58:31;101888.34;;;21.86;45.88
17254;BME280;32542;52.832;13.816;2023-04-21T10:01:36;101881.25;;;21.85;45.94
17254;BME280;32542;52.832;13.816;2023-04-21T10:04:42;101881.25;;;21.85;45.84
17254;BME280;32542;52.832;13.816;2023-04-21T10:07:47;101883.91;;;21.85;45.92
17254;BME280;32542;52.832;13.816;2023-04-21T10:10:51;101880.34;;;21.85;45.92
17254;BME280;32542;52.832;13.816;2023-04-21T10:13:55;101871.53;;;21.83;45.89
17254;BME280;32542;52.832;13.816;2023-04-21T10:17:03;101870.69;;;21.82;45.94
17254;BME280;32542;52.832;13.816;2023-04-21T10:20:09;101879.56;;;21.81;45.96
17254;BME280;32542;52.832;13.816;2023-04-21T10:23:28;101854.75;;;21.79;45.89
17254;BME280;32542;52.832;13.816;2023-04-21T10:26:33;101877.81;;;21.80;46.21
17254;BME280;32542;52.832;13.816;2023-04-21T10:29:37;101876.09;;;21.79;46.26
17254;BME280;32542;52.832;13.816;2023-04-21T10:33:01;101858.34;;;21.78;46.08
17254;BME280;32542;52.832;13.816;2023-04-21T10:36:10;101863.66;;;21.78;45.77
17254;BME280;32542;52.832;13.816;2023-04-21T10:39:26;101857.47;;;21.77;45.64
17254;BME280;32542;52.832;13.816;2023-04-21T10:42:33;101847.66;;;21.78;45.43
17254;BME280;32542;52.832;13.816;2023-04-21T10:45:37;101843.22;;;21.78;45.52
17254;BME280;32542;52.832;13.816;2023-04-21T10:48:40;101858.34;;;21.78;45.71
17254;BME280;32542;52.832;13.816;2023-04-21T10:52:05;101856.59;;;21.77;45.66
17254;BME280;32542;52.832;13.816;2023-04-21T10:55:09;101852.19;;;21.76;45.86
17254;BME280;32542;52.832;13.816;2023-04-21T10:58:14;101845.13;;;21.75;45.95
17254;BME280;32542;52.832;13.816;2023-04-21T11:01:18;101836.25;;;21.74;45.93
17254;BME280;32542;52.832;13.816;2023-04-21T11:04:22;101836.25;;;21.74;45.85
17254;BME280;32542;52.832;13.816;2023-04-21T11:07:27;101844.31;;;21.73;45.83
17254;BME280;32542;52.832;13.816;2023-04-21T11:10:41;101836.31;;;21.73;45.78
17254;BME280;32542;52.832;13.816;2023-04-21T11:13:45;101827.44;;;21.72;45.70
17254;BME280;32542;52.832;13.816;2023-04-21T11:16:48;101823.88;;;21.72;45.35
17254;BME280;32542;52.832;13.816;2023-04-21T11:19:53;101814.97;;;21.73;45.04
17254;BME280;32542;52.832;13.816;2023-04-21T11:22:57;101817.66;;;21.73;44.78
17254;BME280;32542;52.832;13.816;2023-04-21T11:26:00;101814.09;;;21.72;44.94
17254;BME280;32542;52.832;13.816;2023-04-21T11:29:05;101817.66;;;21.73;45.02
17254;BME280;32542;52.832;13.816;2023-04-21T11:32:08;101828.31;;;21.73;45.25
17254;BME280;32542;52.832;13.816;2023-04-21T11:35:11;101800.84;;;21.71;45.34
17254;BME280;32542;52.832;13.816;2023-04-21T11:38:15;101797.28;;;21.70;45.23
17254;BME280;32542;52.832;13.816;2023-04-21T11:41:20;101805.28;;;21.70;45.28
17254;BME280;32542;52.832;13.816;2023-04-21T11:44:33;101800.88;;;21.69;45.18
17254;BME280;32542;52.832;13.816;2023-04-21T11:47:36;101798.25;;;21.68;45.29
17254;BME280;32542;52.832;13.816;2023-04-21T11:50:46;101801.81;;;21.68;45.22
17254;BME280;32542;52.832;13.816;2023-04-21T11:53:50;101798.25;;;21.68;45.03
17254;BME280;32542;52.832;13.816;2023-04-21T11:56:53;101773.38;;;21.69;44.84
17254;BME280;32542;52.832;13.816;2023-04-21T11:59:57;101780.41;;;21.70;44.71
17254;BME280;32542;52.832;13.816;2023-04-21T12:03:00;101775.97;;;21.70;44.69
17254;BME280;32542;52.832;13.816;2023-04-21T12:06:03;101769.75;;;21.70;44.68
17254;BME280;32542;52.832;13.816;2023-04-21T12:09:15;101773.28;;;21.70;44.74
17254;BME280;32542;52.832;13.816;2023-04-21T12:12:20;101770.69;;;21.69;44.89
17254;BME280;32542;52.832;13.816;2023-04-21T12:15:23;101760.88;;;21.69;45.10
17254;BME280;32542;52.832;13.816;2023-04-21T12:18:26;101762.69;;;21.69;45.02
17254;BME280;32542;52.832;13.816;2023-04-21T12:21:29;101758.28;;;21.68;44.43
17254;BME280;32542;52.832;13.816;2023-04-21T12:24:34;101749.53;;;21.64;41.65
17254;BME280;32542;52.832;13.816;2023-04-21T12:27:46;101749.75;;;21.58;39.26
17254;BME280;32542;52.832;13.816;2023-04-21T12:30:49;101746.28;;;21.56;39.93
17254;BME280;32542;52.832;13.816;2023-04-21T12:33:52;101744.56;;;21.54;39.92
17254;BME280;32542;52.832;13.816;2023-04-21T12:36:55;101733.91;;;21.54;40.54
17254;BME280;32542;52.832;13.816;2023-04-21T12:40:00;101732.06;;;21.56;40.60
17254;BME280;32542;52.832;13.816;2023-04-21T12:43:03;101732.88;;;21.58;40.36
17254;BME280;32542;52.832;13.816;2023-04-21T12:46:05;101732.81;;;21.59;40.71
17254;BME280;32542;52.832;13.816;2023-04-21T12:49:09;101732.78;;;21.61;40.65
17254;BME280;32542;52.832;13.816;2023-04-21T12:52:12;101723.84;;;21.62;40.73
17254;BME280;32542;52.832;13.816;2023-04-21T12:55:16;101724.72;;;21.62;40.85
17254;BME280;32542;52.832;13.816;2023-04-21T12:58:19;101718.44;;;21.63;41.04
17254;BME280;32542;52.832;13.816;2023-04-21T13:01:23;101730.88;;;21.64;41.12
17254;BME280;32542;52.832;13.816;2023-04-21T13:04:26;101715.75;;;21.65;41.31
17254;BME280;32542;52.832;13.816;2023-04-21T13:07:29;101717.47;;;21.66;41.63
17254;BME280;32542;52.832;13.816;2023-04-21T13:10:34;101721.03;;;21.66;41.80
17254;BME280;32542;52.832;13.816;2023-04-21T13:13:37;101712.06;;;21.67;41.83
17254;BME280;32542;52.832;13.816;2023-04-21T13:16:40;101712.03;;;21.69;42.16
17254;BME280;32542;52.832;13.816;2023-04-21T13:19:43;101713.75;;;21.70;42.24
17254;BME280;32542;52.832;13.816;2023-04-21T13:22:46;101699.53;;;21.71;42.31
17254;BME280;32542;52.832;13.816;2023-04-21T13:25:50;101716.34;;;21.73;42.47
17254;BME280;32542;52.832;13.816;2023-04-21T13:28:53;101712.72;;;21.74;42.49
17254;BME280;32542;52.832;13.816;2023-04-21T13:31:56;101686.06;;;21.74;42.57
17254;BME280;32542;52.832;13.816;2023-04-21T13:34:59;101698.47;;;21.75;42.61
17254;BME280;32542;52.832;13.816;2023-04-21T13:38:02;101686.06;;;21.74;42.74
17254;BME280;32542;52.832;13.816;2023-04-21T13:41:07;101680.69;;;21.75;42.93
17254;BME280;32542;52.832;13.816;2023-04-21T13:44:09;101668.22;;;21.76;42.86
17254;BME280;32542;52.832;13.816;2023-04-21T13:47:12;101672.63;;;21.77;43.05
17254;BME280;32542;52.832;13.816;2023-04-21T13:50:16;101660.19;;;21.77;43.16
17254;BME280;32542;52.832;13.816;2023-04-21T13:53:19;101658.34;;;21.78;43.26
17254;BME280;32542;52.832;13.816;2023-04-21T13:56:23;101660.13;;;21.79;43.31
17254;BME280;32542;52.832;13.816;2023-04-21T13:59:26;101660.13;;;21.79;43.32
17254;BME280;32542;52.832;13.816;2023-04-21T14:02:29;101646.78;;;21.79;43.27
17254;BME280;32542;52.832;13.816;2023-04-21T14:05:34;101637.84;;;21.80;43.32
17254;BME280;32542;52.832;13.816;2023-04-21T14:08:37;101643.16;;;21.80;43.40
17254;BME280;32542;52.832;13.816;2023-04-21T14:11:41;101649.38;;;21.81;43.46
17254;BME280;32542;52.832;13.816;2023-04-21T14:14:44;101654.72;;;21.81;43.51
17254;BME280;32542;52.832;13.816;2023-04-21T14:17:47;101639.59;;;21.81;43.64
17254;BME280;32542;52.832;13.816;2023-04-21T14:20:51;101628.94;;;21.81;43.61
17254;BME280;32542;52.832;13.816;2023-04-21T14:23:53;101623.59;;;21.81;43.81
17254;BME280;32542;52.832;13.816;2023-04-21T14:26:58;101619.13;;;21.82;43.69
17254;BME280;32542;52.832;13.816;2023-04-21T14:30:01;101617.38;;;21.82;43.79
17254;BME280;32542;52.832;13.816;2023-04-21T14:33:04;101625.38;;;21.82;43.93
17254;BME280;32542;52.832;13.816;2023-04-21T14:36:07;101624.44;;;21.83;44.01
17254;BME280;32542;52.832;13.816;2023-04-21T14:39:11;101612.84;;;21.84;44.08
17254;BME280;32542;52.832;13.816;2023-04-21T14:42:15;101611.91;;;21.85;44.16
17254;BME280;32542;52.832;13.816;2023-04-21T14:45:19;101607.44;;;21.86;44.26
17254;BME280;32542;52.832;13.816;2023-04-21T14:48:22;101597.59;;;21.88;44.56
17254;BME280;32542;52.832;13.816;2023-04-21T14:51:25;101598.47;;;21.88;44.60
17254;BME280;32542;52.832;13.816;2023-04-21T14:54:28;101600.25;;;21.88;44.49
17254;BME280;32542;52.832;13.816;2023-04-21T14:57:32;101595.72;;;21.90;44.54
17254;BME280;32542;52.832;13.816;2023-04-21T15:00:35;101600.19;;;21.89;44.66
17254;BME280;32542;52.832;13.816;2023-04-21T15:03:38;101595.72;;;21.90;44.70
17254;BME280;32542;52.832;13.816;2023-04-21T15:06:41;101587.75;;;21.90;44.71
17254;BME280;32542;52.832;13.816;2023-04-21T15:09:44;101581.53;;;21.89;44.72
17254;BME280;32542;52.832;13.816;2023-04-21T15:12:50;101579.72;;;21.90;44.73
17254;BME280;32542;52.832;13.816;2023-04-21T15:15:53;101574.34;;;21.91;44.89
17254;BME280;32542;52.832;13.816;2023-04-21T15:18:56;101573.41;;;21.92;44.92
17254;BME280;32542;52.832;13.816;2023-04-21T15:21:59;101562.75;;;21.92;44.92
17254;BME280;32542;52.832;13.816;2023-04-21T15:25:02;101564.47;;;21.93;44.72
17254;BME280;32542;52.832;13.816;2023-04-21T15:28:06;101563.56;;;21.94;44.40
17254;BME280;32542;52.832;13.816;2023-04-21T15:31:10;101553.75;;;21.95;44.33
17254;BME280;32542;52.832;13.816;2023-04-21T15:34:13;101557.28;;;21.95;44.32
17254;BME280;32542;52.832;13.816;2023-04-21T15:37:16;101558.16;;;21.96;44.40
17254;BME280;32542;52.832;13.816;2023-04-21T15:40:20;101548.38;;;21.96;44.41
17254;BME280;32542;52.832;13.816;2023-04-21T15:43:25;101549.25;;;21.97;44.59
17254;BME280;32542;52.832;13.816;2023-04-21T15:46:28;101548.38;;;21.96;44.39
17254;BME280;32542;52.832;13.816;2023-04-21T15:49:31;101543.03;;;21.96;44.44
17254;BME280;32542;52.832;13.816;2023-04-21T15:52:35;101540.28;;;21.98;44.48